sensor_id;sensor_type;location;lat;lon;timestamp;temperature;humidity
12268;DHT22;6196;48.398;11.736;2022-08-25T00:01:56;17.60;99.90
12268;DHT22;6196;48.398;11.736;2022-08-25T00:04:28;17.60;99.90
12268;DHT22;6196;48.398;11.736;2022-08-25T00:06:55;17.60;99.90
12268;DHT22;6196;48.398;11.736;2022-08-25T00:09:29;17.60;99.90
12268;DHT22;6196;48.398;11.736;2022-08-25T00:11:57;17.60;99.90
12268;DHT22;6196;48.398;11.736;2022-08-25T00:14:28;17.60;99.90
12268;DHT22;6196;48.398;11.736;2022-08-25T00:16:58;17.60;99.90
12268;DHT22;6196;48.398;11.736;2022-08-25T00:19:29;17.60;99.90
12268;DHT22;6196;48.398;11.736;2022-08-25T00:21:58;17.60;99.90
12268;DHT22;6196;48.398;11.736;2022-08-25T00:24:26;17.60;99.90
12268;DHT22;6196;48.398;11.736;2022-08-25T00:26:55;17.60;99.90
12268;DHT22;6196;48.398;11.736;2022-08-25T00:29:24;17.60;99.90
12268;DHT22;6196;48.398;11.736;2022-08-25T00:31:54;17.60;99.90
12268;DHT22;6196;48.398;11.736;2022-08-25T00:34:25;17.60;99.90
12268;DHT22;6196;48.398;11.736;2022-08-25T00:36:53;17.50;99.90
12268;DHT22;6196;48.398;11.736;2022-08-25T00:39:22;17.50;99.90
12268;DHT22;6196;48.398;11.736;2022-08-25T00:41:52;17.50;99.90
12268;DHT22;6196;48.398;11.736;2022-08-25T00:44:23;17.50;99.90
12268;DHT22;6196;48.398;11.736;2022-08-25T00:46:55;17.40;99.90
12268;DHT22;6196;48.398;11.736;2022-08-25T00:49:36;17.40;99.90
12268;DHT22;6196;48.398;11.736;2022-08-25T00:52:10;17.40;99.90
12268;DHT22;6196;48.398;11.736;2022-08-25T00:54:53;17.40;99.90
12268;DHT22;6196;48.398;11.736;2022-08-25T00:57:28;17.40;99.90
12268;DHT22;6196;48.398;11.736;2022-08-25T01:00:07;17.40;99.90
12268;DHT22;6196;48.398;11.736;2022-08-25T01:02:38;17.50;99.90
12268;DHT22;6196;48.398;11.736;2022-08-25T01:05:06;17.40;99.90
12268;DHT22;6196;48.398;11.736;2022-08-25T01:07:33;17.40;99.90
12268;DHT22;6196;48.398;11.736;2022-08-25T01:10:01;17.40;99.90
12268;DHT22;6196;48.398;11.736;2022-08-25T01:12:28;17.40;99.90
12268;DHT22;6196;48.398;11.736;2022-08-25T01:14:55;17.40;99.90
12268;DHT22;6196;48.398;11.736;2022-08-25T01:17:22;17.50;99.90
12268;DHT22;6196;48.398;11.736;2022-08-25T01:19:53;17.40;99.90
12268;DHT22;6196;48.398;11.736;2022-08-25T01:22:21;17.40;99.90
12268;DHT22;6196;48.398;11.736;2022-08-25T01:25:03;17.40;99.90
12268;DHT22;6196;48.398;11.736;2022-08-25T01:27:33;17.40;99.90
12268;DHT22;6196;48.398;11.736;2022-08-25T01:30:00;17.30;99.90
12268;DHT22;6196;48.398;11.736;2022-08-25T01:32:27;17.30;99.90
12268;DHT22;6196;48.398;11.736;2022-08-25T01:34:53;17.30;99.90
12268;DHT22;6196;48.398;11.736;2022-08-25T01:37:20;17.30;99.90
12268;DHT22;6196;48.398;11.736;2022-08-25T01:39:47;17.30;99.90
12268;DHT22;6196;48.398;11.736;2022-08-25T01:45:15;17.30;99.90
12268;DHT22;6196;48.398;11.736;2022-08-25T01:47:42;17.30;99.90
12268;DHT22;6196;48.398;11.736;2022-08-25T01:50:10;17.30;99.90
12268;DHT22;6196;48.398;11.736;2022-08-25T01:53:03;17.30;99.90
12268;DHT22;6196;48.398;11.736;2022-08-25T01:55:34;17.20;99.90
12268;DHT22;6196;48.398;11.736;2022-08-25T01:58:21;17.20;99.90
12268;DHT22;6196;48.398;11.736;2022-08-25T02:00:54;17.20;99.90
12268;DHT22;6196;48.398;11.736;2022-08-25T02:03:24;17.20;99.90
12268;DHT22;6196;48.398;11.736;2022-08-25T02:05:52;17.20;99.90
12268;DHT22;6196;48.398;11.736;2022-08-25T02:08:21;17.20;99.90
12268;DHT22;6196;48.398;11.736;2022-08-25T02:10:50;17.20;99.90
12268;DHT22;6196;48.398;11.736;2022-08-25T02:13:18;17.10;99.90
12268;DHT22;6196;48.398;11.736;2022-08-25T02:15:54;17.10;99.90
12268;DHT22;6196;48.398;11.736;2022-08-25T02:18:23;17.10;99.90
12268;DHT22;6196;48.398;11.736;2022-08-25T02:20:50;17.10;99.90
12268;DHT22;6196;48.398;11.736;2022-08-25T02:23:17;17.10;99.90
12268;DHT22;6196;48.398;11.736;2022-08-25T02:25:44;17.00;99.90
12268;DHT22;6196;48.398;11.736;2022-08-25T02:28:12;17.10;99.90
12268;DHT22;6196;48.398;11.736;2022-08-25T02:30:40;17.10;99.90
12268;DHT22;6196;48.398;11.736;2022-08-25T02:33:08;17.10;99.90
12268;DHT22;6196;48.398;11.736;2022-08-25T02:35:36;17.10;99.90
12268;DHT22;6196;48.398;11.736;2022-08-25T02:38:03;17.10;99.90
12268;DHT22;6196;48.398;11.736;2022-08-25T02:40:31;17.10;99.90
12268;DHT22;6196;48.398;11.736;2022-08-25T02:42:58;17.10;99.90
12268;DHT22;6196;48.398;11.736;2022-08-25T02:45:25;17.10;99.90
12268;DHT22;6196;48.398;11.736;2022-08-25T02:47:52;17.10;99.90
12268;DHT22;6196;48.398;11.736;2022-08-25T02:50:19;17.10;99.90
12268;DHT22;6196;48.398;11.736;2022-08-25T02:52:46;17.10;99.90
12268;DHT22;6196;48.398;11.736;2022-08-25T02:55:16;17.10;99.90
12268;DHT22;6196;48.398;11.736;2022-08-25T02:57:43;17.00;99.90
12268;DHT22;6196;48.398;11.736;2022-08-25T03:00:12;17.00;99.90
12268;DHT22;6196;48.398;11.736;2022-08-25T03:02:41;17.00;99.90
12268;DHT22;6196;48.398;11.736;2022-08-25T03:05:09;17.00;99.90
12268;DHT22;6196;48.398;11.736;2022-08-25T03:07:37;17.00;99.90
12268;DHT22;6196;48.398;11.736;2022-08-25T03:10:11;17.00;99.90
12268;DHT22;6196;48.398;11.736;2022-08-25T03:12:40;16.90;99.90
12268;DHT22;6196;48.398;11.736;2022-08-25T03:15:09;16.90;99.90
12268;DHT22;6196;48.398;11.736;2022-08-25T03:17:39;16.90;99.90
12268;DHT22;6196;48.398;11.736;2022-08-25T03:20:06;16.90;99.90
12268;DHT22;6196;48.398;11.736;2022-08-25T03:22:34;16.90;99.90
12268;DHT22;6196;48.398;11.736;2022-08-25T03:25:03;16.90;99.90
12268;DHT22;6196;48.398;11.736;2022-08-25T03:27:50;16.90;99.90
12268;DHT22;6196;48.398;11.736;2022-08-25T03:30:17;16.90;99.90
12268;DHT22;6196;48.398;11.736;2022-08-25T03:32:45;16.90;99.90
12268;DHT22;6196;48.398;11.736;2022-08-25T03:35:12;16.90;99.90
12268;DHT22;6196;48.398;11.736;2022-08-25T03:37:39;16.90;99.90
12268;DHT22;6196;48.398;11.736;2022-08-25T03:40:10;16.80;99.90
12268;DHT22;6196;48.398;11.736;2022-08-25T03:42:45;16.80;99.90
12268;DHT22;6196;48.398;11.736;2022-08-25T03:45:13;16.80;99.90
12268;DHT22;6196;48.398;11.736;2022-08-25T03:47:46;16.80;99.90
12268;DHT22;6196;48.398;11.736;2022-08-25T03:50:15;16.80;99.90
12268;DHT22;6196;48.398;11.736;2022-08-25T03:52:43;16.70;99.90
12268;DHT22;6196;48.398;11.736;2022-08-25T03:55:12;16.70;99.90
12268;DHT22;6196;48.398;11.736;2022-08-25T03:57:40;16.70;99.90
12268;DHT22;6196;48.398;11.736;2022-08-25T04:00:08;16.70;99.90
12268;DHT22;6196;48.398;11.736;2022-08-25T04:02:38;16.70;99.90
12268;DHT22;6196;48.398;11.736;2022-08-25T04:05:06;16.70;99.90
12268;DHT22;6196;48.398;11.736;2022-08-25T04:07:34;16.70;99.90
12268;DHT22;6196;48.398;11.736;2022-08-25T04:10:02;16.70;99.90
12268;DHT22;6196;48.398;11.736;2022-08-25T04:12:30;16.70;99.90
12268;DHT22;6196;48.398;11.736;2022-08-25T04:14:57;16.70;99.90
12268;DHT22;6196;48.398;11.736;2022-08-25T04:17:24;16.70;99.90
12268;DHT22;6196;48.398;11.736;2022-08-25T04:19:51;16.70;99.90
12268;DHT22;6196;48.398;11.736;2022-08-25T04:22:18;16.60;99.90
12268;DHT22;6196;48.398;11.736;2022-08-25T04:24:45;16.70;99.90
12268;DHT22;6196;48.398;11.736;2022-08-25T04:27:13;16.60;99.90
12268;DHT22;6196;48.398;11.736;2022-08-25T04:29:40;16.70;99.90
12268;DHT22;6196;48.398;11.736;2022-08-25T04:32:07;16.70;99.90
12268;DHT22;6196;48.398;11.736;2022-08-25T04:34:34;16.70;99.90
12268;DHT22;6196;48.398;11.736;2022-08-25T04:37:02;16.70;99.90
12268;DHT22;6196;48.398;11.736;2022-08-25T04:39:32;16.70;99.90
12268;DHT22;6196;48.398;11.736;2022-08-25T04:41:59;16.70;99.90
12268;DHT22;6196;48.398;11.736;2022-08-25T04:44:27;16.70;99.90
12268;DHT22;6196;48.398;11.736;2022-08-25T04:46:55;16.70;99.90
12268;DHT22;6196;48.398;11.736;2022-08-25T04:49:22;16.70;99.90
12268;DHT22;6196;48.398;11.736;2022-08-25T04:51:49;16.70;99.90
12268;DHT22;6196;48.398;11.736;2022-08-25T04:54:17;16.80;99.90
12268;DHT22;6196;48.398;11.736;2022-08-25T04:56:48;16.80;99.90
12268;DHT22;6196;48.398;11.736;2022-08-25T04:59:20;16.80;99.90
12268;DHT22;6196;48.398;11.736;2022-08-25T05:01:47;16.90;99.90
12268;DHT22;6196;48.398;11.736;2022-08-25T05:04:19;16.90;99.90
12268;DHT22;6196;48.398;11.736;2022-08-25T05:06:54;17.00;99.90
12268;DHT22;6196;48.398;11.736;2022-08-25T05:09:22;17.00;99.90
12268;DHT22;6196;48.398;11.736;2022-08-25T05:11:51;17.10;99.90
12268;DHT22;6196;48.398;11.736;2022-08-25T05:14:19;17.20;99.90
12268;DHT22;6196;48.398;11.736;2022-08-25T05:16:51;17.20;99.90
12268;DHT22;6196;48.398;11.736;2022-08-25T05:19:18;17.30;99.90
12268;DHT22;6196;48.398;11.736;2022-08-25T05:21:45;17.40;99.90
12268;DHT22;6196;48.398;11.736;2022-08-25T05:24:12;17.50;99.90
12268;DHT22;6196;48.398;11.736;2022-08-25T05:26:39;17.60;99.90
12268;DHT22;6196;48.398;11.736;2022-08-25T05:29:06;17.70;99.90
12268;DHT22;6196;48.398;11.736;2022-08-25T05:31:33;17.80;99.90
12268;DHT22;6196;48.398;11.736;2022-08-25T05:34:08;17.80;99.90
12268;DHT22;6196;48.398;11.736;2022-08-25T05:36:35;17.90;99.90
12268;DHT22;6196;48.398;11.736;2022-08-25T05:39:03;18.10;99.90
12268;DHT22;6196;48.398;11.736;2022-08-25T05:41:31;18.30;99.90
12268;DHT22;6196;48.398;11.736;2022-08-25T05:43:58;18.50;99.90
12268;DHT22;6196;48.398;11.736;2022-08-25T05:46:25;18.60;99.90
12268;DHT22;6196;48.398;11.736;2022-08-25T05:48:57;18.70;99.90
12268;DHT22;6196;48.398;11.736;2022-08-25T05:51:24;18.80;99.90
12268;DHT22;6196;48.398;11.736;2022-08-25T05:53:51;18.90;99.90
12268;DHT22;6196;48.398;11.736;2022-08-25T05:56:19;19.10;99.90
12268;DHT22;6196;48.398;11.736;2022-08-25T05:58:46;19.30;99.90
12268;DHT22;6196;48.398;11.736;2022-08-25T06:01:28;19.40;99.90
12268;DHT22;6196;48.398;11.736;2022-08-25T06:04:27;19.60;99.90
12268;DHT22;6196;48.398;11.736;2022-08-25T06:06:54;19.70;99.90
12268;DHT22;6196;48.398;11.736;2022-08-25T06:09:21;19.80;99.90
12268;DHT22;6196;48.398;11.736;2022-08-25T06:11:49;20.00;99.90
12268;DHT22;6196;48.398;11.736;2022-08-25T06:14:20;20.10;99.90
12268;DHT22;6196;48.398;11.736;2022-08-25T06:16:48;20.40;99.90
12268;DHT22;6196;48.398;11.736;2022-08-25T06:19:17;20.70;99.90
12268;DHT22;6196;48.398;11.736;2022-08-25T06:21:43;20.80;99.90
12268;DHT22;6196;48.398;11.736;2022-08-25T06:24:11;21.00;99.90
12268;DHT22;6196;48.398;11.736;2022-08-25T06:26:41;21.20;99.90
12268;DHT22;6196;48.398;11.736;2022-08-25T06:29:09;21.40;99.90
12268;DHT22;6196;48.398;11.736;2022-08-25T06:31:36;21.60;99.90
12268;DHT22;6196;48.398;11.736;2022-08-25T06:34:03;21.70;99.90
12268;DHT22;6196;48.398;11.736;2022-08-25T06:36:30;21.90;99.90
12268;DHT22;6196;48.398;11.736;2022-08-25T06:38:57;22.10;99.90
12268;DHT22;6196;48.398;11.736;2022-08-25T06:41:24;22.20;99.90
12268;DHT22;6196;48.398;11.736;2022-08-25T06:44:02;22.10;99.90
12268;DHT22;6196;48.398;11.736;2022-08-25T06:46:31;22.30;99.90
12268;DHT22;6196;48.398;11.736;2022-08-25T06:49:06;22.30;99.90
12268;DHT22;6196;48.398;11.736;2022-08-25T06:51:33;22.50;99.90
12268;DHT22;6196;48.398;11.736;2022-08-25T06:54:04;22.70;99.90
12268;DHT22;6196;48.398;11.736;2022-08-25T06:56:33;22.80;99.90
12268;DHT22;6196;48.398;11.736;2022-08-25T06:59:02;22.80;99.90
12268;DHT22;6196;48.398;11.736;2022-08-25T07:01:29;22.80;99.90
12268;DHT22;6196;48.398;11.736;2022-08-25T07:03:59;22.80;99.90
12268;DHT22;6196;48.398;11.736;2022-08-25T07:06:28;23.00;99.90
12268;DHT22;6196;48.398;11.736;2022-08-25T07:08:58;23.00;99.90
12268;DHT22;6196;48.398;11.736;2022-08-25T07:11:25;23.10;99.90
12268;DHT22;6196;48.398;11.736;2022-08-25T07:13:52;23.30;99.90
12268;DHT22;6196;48.398;11.736;2022-08-25T07:16:20;23.50;99.90
12268;DHT22;6196;48.398;11.736;2022-08-25T07:18:48;23.50;99.90
12268;DHT22;6196;48.398;11.736;2022-08-25T07:21:15;23.70;99.90
12268;DHT22;6196;48.398;11.736;2022-08-25T07:23:43;23.80;99.90
12268;DHT22;6196;48.398;11.736;2022-08-25T07:26:18;24.20;99.90
12268;DHT22;6196;48.398;11.736;2022-08-25T07:29:06;24.20;99.90
12268;DHT22;6196;48.398;11.736;2022-08-25T07:31:36;24.30;99.90
12268;DHT22;6196;48.398;11.736;2022-08-25T07:34:05;24.50;99.90
12268;DHT22;6196;48.398;11.736;2022-08-25T07:36:52;24.40;99.90
12268;DHT22;6196;48.398;11.736;2022-08-25T07:39:20;24.00;99.90
12268;DHT22;6196;48.398;11.736;2022-08-25T07:41:48;24.40;99.90
12268;DHT22;6196;48.398;11.736;2022-08-25T07:44:36;24.70;99.90
12268;DHT22;6196;48.398;11.736;2022-08-25T07:47:03;24.80;99.90
12268;DHT22;6196;48.398;11.736;2022-08-25T07:49:30;24.60;99.90
12268;DHT22;6196;48.398;11.736;2022-08-25T07:52:05;24.60;99.90
12268;DHT22;6196;48.398;11.736;2022-08-25T07:54:35;24.60;99.90
12268;DHT22;6196;48.398;11.736;2022-08-25T07:57:05;24.40;99.90
12268;DHT22;6196;48.398;11.736;2022-08-25T07:59:33;24.40;99.90
12268;DHT22;6196;48.398;11.736;2022-08-25T08:02:10;24.40;99.90
12268;DHT22;6196;48.398;11.736;2022-08-25T08:04:45;24.50;99.90
12268;DHT22;6196;48.398;11.736;2022-08-25T08:07:21;24.40;99.90
12268;DHT22;6196;48.398;11.736;2022-08-25T08:10:11;24.30;99.90
12268;DHT22;6196;48.398;11.736;2022-08-25T08:12:58;24.40;99.90
12268;DHT22;6196;48.398;11.736;2022-08-25T08:15:25;24.50;99.90
12268;DHT22;6196;48.398;11.736;2022-08-25T08:17:56;24.60;99.90
12268;DHT22;6196;48.398;11.736;2022-08-25T08:20:25;24.90;99.90
12268;DHT22;6196;48.398;11.736;2022-08-25T08:22:52;25.20;99.90
12268;DHT22;6196;48.398;11.736;2022-08-25T08:25:20;25.00;99.90
12268;DHT22;6196;48.398;11.736;2022-08-25T08:27:53;25.10;99.90
12268;DHT22;6196;48.398;11.736;2022-08-25T08:30:22;25.20;99.90
12268;DHT22;6196;48.398;11.736;2022-08-25T08:32:52;25.60;99.90
12268;DHT22;6196;48.398;11.736;2022-08-25T08:35:41;25.90;99.90
12268;DHT22;6196;48.398;11.736;2022-08-25T08:38:08;26.00;99.90
12268;DHT22;6196;48.398;11.736;2022-08-25T08:44:37;26.20;99.90
12268;DHT22;6196;48.398;11.736;2022-08-25T08:50:23;26.30;99.90
12268;DHT22;6196;48.398;11.736;2022-08-25T08:55:52;26.10;99.90
12268;DHT22;6196;48.398;11.736;2022-08-25T08:58:45;25.90;99.90
12268;DHT22;6196;48.398;11.736;2022-08-25T09:01:22;26.10;99.90
12268;DHT22;6196;48.398;11.736;2022-08-25T09:04:12;25.90;99.90
12268;DHT22;6196;48.398;11.736;2022-08-25T09:06:47;25.80;99.90
12268;DHT22;6196;48.398;11.736;2022-08-25T09:09:19;25.80;99.90
12268;DHT22;6196;48.398;11.736;2022-08-25T09:15:19;26.00;99.90
12268;DHT22;6196;48.398;11.736;2022-08-25T09:21:34;26.00;99.90
12268;DHT22;6196;48.398;11.736;2022-08-25T09:24:13;25.90;99.90
12268;DHT22;6196;48.398;11.736;2022-08-25T09:29:33;26.10;99.90
12268;DHT22;6196;48.398;11.736;2022-08-25T09:32:21;26.20;99.90
12268;DHT22;6196;48.398;11.736;2022-08-25T09:34:57;26.10;99.90
12268;DHT22;6196;48.398;11.736;2022-08-25T09:37:25;26.30;99.90
12268;DHT22;6196;48.398;11.736;2022-08-25T09:39:53;26.20;99.90
12268;DHT22;6196;48.398;11.736;2022-08-25T09:42:50;26.20;99.90
12268;DHT22;6196;48.398;11.736;2022-08-25T09:50:52;25.80;99.90
12268;DHT22;6196;48.398;11.736;2022-08-25T09:53:24;26.00;99.90
12268;DHT22;6196;48.398;11.736;2022-08-25T09:56:04;26.20;99.90
12268;DHT22;6196;48.398;11.736;2022-08-25T09:58:33;26.00;99.90
12268;DHT22;6196;48.398;11.736;2022-08-25T10:01:04;26.20;99.90
12268;DHT22;6196;48.398;11.736;2022-08-25T10:06:24;26.50;99.90
12268;DHT22;6196;48.398;11.736;2022-08-25T10:08:58;26.50;99.90
12268;DHT22;6196;48.398;11.736;2022-08-25T10:11:52;26.90;99.90
12268;DHT22;6196;48.398;11.736;2022-08-25T10:14:28;27.10;99.90
12268;DHT22;6196;48.398;11.736;2022-08-25T10:19:42;26.70;99.90
12268;DHT22;6196;48.398;11.736;2022-08-25T10:22:11;26.80;99.90
12268;DHT22;6196;48.398;11.736;2022-08-25T10:24:46;27.00;99.90
12268;DHT22;6196;48.398;11.736;2022-08-25T10:28:09;27.00;99.90
12268;DHT22;6196;48.398;11.736;2022-08-25T10:30:28;27.20;99.90
12268;DHT22;6196;48.398;11.736;2022-08-25T10:33:22;28.20;99.90
12268;DHT22;6196;48.398;11.736;2022-08-25T10:36:17;28.80;99.90
12268;DHT22;6196;48.398;11.736;2022-08-25T10:38:53;28.90;99.90
12268;DHT22;6196;48.398;11.736;2022-08-25T10:45:06;29.10;99.90
12268;DHT22;6196;48.398;11.736;2022-08-25T10:56:25;29.70;99.90
12268;DHT22;6196;48.398;11.736;2022-08-25T10:59:18;29.60;99.90
12268;DHT22;6196;48.398;11.736;2022-08-25T11:05:02;29.70;99.90
12268;DHT22;6196;48.398;11.736;2022-08-25T11:07:35;28.90;99.90
12268;DHT22;6196;48.398;11.736;2022-08-25T11:10:30;28.50;99.90
12268;DHT22;6196;48.398;11.736;2022-08-25T11:13:12;28.90;99.90
12268;DHT22;6196;48.398;11.736;2022-08-25T11:15:46;29.30;99.90
12268;DHT22;6196;48.398;11.736;2022-08-25T11:18:53;29.70;99.90
12268;DHT22;6196;48.398;11.736;2022-08-25T11:21:47;29.90;99.90
12268;DHT22;6196;48.398;11.736;2022-08-25T11:27:21;29.70;99.90
12268;DHT22;6196;48.398;11.736;2022-08-25T11:30:03;30.00;99.90
12268;DHT22;6196;48.398;11.736;2022-08-25T11:32:38;30.30;99.90
12268;DHT22;6196;48.398;11.736;2022-08-25T11:35:11;30.40;99.90
12268;DHT22;6196;48.398;11.736;2022-08-25T11:40:52;30.70;99.90
12268;DHT22;6196;48.398;11.736;2022-08-25T11:49:50;31.70;99.90
12268;DHT22;6196;48.398;11.736;2022-08-25T11:55:18;32.60;99.90
12268;DHT22;6196;48.398;11.736;2022-08-25T11:57:50;32.70;99.90
12268;DHT22;6196;48.398;11.736;2022-08-25T12:00:38;32.70;99.90
12268;DHT22;6196;48.398;11.736;2022-08-25T12:36:00;31.50;99.90
12268;DHT22;6196;48.398;11.736;2022-08-25T12:38:32;31.60;99.90
12268;DHT22;6196;48.398;11.736;2022-08-25T12:41:12;31.90;99.90
12268;DHT22;6196;48.398;11.736;2022-08-25T12:43:45;32.50;99.90
12268;DHT22;6196;48.398;11.736;2022-08-25T12:54:11;31.40;99.90
12268;DHT22;6196;48.398;11.736;2022-08-25T12:56:59;31.80;99.90
12268;DHT22;6196;48.398;11.736;2022-08-25T12:59:40;31.90;99.90
12268;DHT22;6196;48.398;11.736;2022-08-25T13:11:19;31.80;99.90
12268;DHT22;6196;48.398;11.736;2022-08-25T13:14:03;31.70;99.90
12268;DHT22;6196;48.398;11.736;2022-08-25T13:16:35;31.70;99.90
12268;DHT22;6196;48.398;11.736;2022-08-25T13:19:04;31.90;99.90
12268;DHT22;6196;48.398;11.736;2022-08-25T13:21:36;32.50;99.90
12268;DHT22;6196;48.398;11.736;2022-08-25T13:27:05;33.20;99.90
12268;DHT22;6196;48.398;11.736;2022-08-25T13:29:48;34.00;99.40
12268;DHT22;6196;48.398;11.736;2022-08-25T13:32:32;34.20;99.30
12268;DHT22;6196;48.398;11.736;2022-08-25T13:35:28;34.50;97.10
12268;DHT22;6196;48.398;11.736;2022-08-25T13:38:15;35.10;96.80
12268;DHT22;6196;48.398;11.736;2022-08-25T13:40:43;35.70;96.10
12268;DHT22;6196;48.398;11.736;2022-08-25T13:43:12;36.70;95.30
12268;DHT22;6196;48.398;11.736;2022-08-25T13:45:45;36.90;94.80
12268;DHT22;6196;48.398;11.736;2022-08-25T13:48:38;37.00;94.20
12268;DHT22;6196;48.398;11.736;2022-08-25T13:51:24;37.30;93.10
12268;DHT22;6196;48.398;11.736;2022-08-25T13:54:03;37.10;92.70
12268;DHT22;6196;48.398;11.736;2022-08-25T13:56:37;36.10;93.30
12268;DHT22;6196;48.398;11.736;2022-08-25T13:59:26;34.20;93.70
12268;DHT22;6196;48.398;11.736;2022-08-25T14:01:56;33.40;95.60
12268;DHT22;6196;48.398;11.736;2022-08-25T14:12:43;32.10;96.50
12268;DHT22;6196;48.398;11.736;2022-08-25T14:15:27;31.40;97.20
12268;DHT22;6196;48.398;11.736;2022-08-25T14:18:30;32.20;97.20
12268;DHT22;6196;48.398;11.736;2022-08-25T14:20:59;34.50;95.10
12268;DHT22;6196;48.398;11.736;2022-08-25T14:23:29;35.70;93.80
12268;DHT22;6196;48.398;11.736;2022-08-25T14:25:57;36.40;92.00
12268;DHT22;6196;48.398;11.736;2022-08-25T14:28:27;37.00;92.10
12268;DHT22;6196;48.398;11.736;2022-08-25T14:30:58;37.70;90.30
12268;DHT22;6196;48.398;11.736;2022-08-25T14:33:37;38.10;90.00
12268;DHT22;6196;48.398;11.736;2022-08-25T14:36:06;38.60;89.10
12268;DHT22;6196;48.398;11.736;2022-08-25T14:38:34;38.40;85.50
12268;DHT22;6196;48.398;11.736;2022-08-25T14:41:05;37.10;89.30
12268;DHT22;6196;48.398;11.736;2022-08-25T14:43:37;37.90;87.40
12268;DHT22;6196;48.398;11.736;2022-08-25T14:46:16;38.90;85.10
12268;DHT22;6196;48.398;11.736;2022-08-25T14:48:51;39.70;83.80
12268;DHT22;6196;48.398;11.736;2022-08-25T14:51:22;39.50;83.20
12268;DHT22;6196;48.398;11.736;2022-08-25T14:53:51;39.30;83.00
12268;DHT22;6196;48.398;11.736;2022-08-25T14:56:20;38.90;80.70
12268;DHT22;6196;48.398;11.736;2022-08-25T14:58:47;38.70;81.90
12268;DHT22;6196;48.398;11.736;2022-08-25T15:01:21;38.40;82.80
12268;DHT22;6196;48.398;11.736;2022-08-25T15:04:01;38.70;81.70
12268;DHT22;6196;48.398;11.736;2022-08-25T15:06:37;38.00;82.40
12268;DHT22;6196;48.398;11.736;2022-08-25T15:09:13;38.00;83.10
12268;DHT22;6196;48.398;11.736;2022-08-25T15:11:45;38.20;82.60
12268;DHT22;6196;48.398;11.736;2022-08-25T15:14:17;38.50;82.30
12268;DHT22;6196;48.398;11.736;2022-08-25T15:16:59;38.30;81.10
12268;DHT22;6196;48.398;11.736;2022-08-25T15:19:27;38.30;79.20
12268;DHT22;6196;48.398;11.736;2022-08-25T15:21:54;38.70;78.90
12268;DHT22;6196;48.398;11.736;2022-08-25T15:24:26;38.70;77.60
12268;DHT22;6196;48.398;11.736;2022-08-25T15:26:59;38.90;76.60
12268;DHT22;6196;48.398;11.736;2022-08-25T15:29:29;38.90;76.90
12268;DHT22;6196;48.398;11.736;2022-08-25T15:31:58;37.50;79.60
12268;DHT22;6196;48.398;11.736;2022-08-25T15:34:26;36.20;81.40
12268;DHT22;6196;48.398;11.736;2022-08-25T15:36:54;35.30;83.20
12268;DHT22;6196;48.398;11.736;2022-08-25T15:39:21;33.80;86.60
12268;DHT22;6196;48.398;11.736;2022-08-25T15:41:48;32.70;89.40
12268;DHT22;6196;48.398;11.736;2022-08-25T15:44:18;31.70;91.20
12268;DHT22;6196;48.398;11.736;2022-08-25T15:46:45;31.20;93.00
12268;DHT22;6196;48.398;11.736;2022-08-25T15:49:16;30.90;93.40
12268;DHT22;6196;48.398;11.736;2022-08-25T15:51:49;30.60;94.80
12268;DHT22;6196;48.398;11.736;2022-08-25T15:54:18;30.20;93.80
12268;DHT22;6196;48.398;11.736;2022-08-25T15:56:46;29.70;94.30
12268;DHT22;6196;48.398;11.736;2022-08-25T15:59:13;29.50;95.20
12268;DHT22;6196;48.398;11.736;2022-08-25T16:01:40;29.40;95.50
12268;DHT22;6196;48.398;11.736;2022-08-25T16:04:10;29.40;95.80
12268;DHT22;6196;48.398;11.736;2022-08-25T16:06:37;29.30;96.10
12268;DHT22;6196;48.398;11.736;2022-08-25T16:09:05;29.00;97.10
12268;DHT22;6196;48.398;11.736;2022-08-25T16:11:34;28.80;97.90
12268;DHT22;6196;48.398;11.736;2022-08-25T16:14:04;28.70;97.60
12268;DHT22;6196;48.398;11.736;2022-08-25T16:16:32;28.50;98.50
12268;DHT22;6196;48.398;11.736;2022-08-25T16:18:59;28.30;99.20
12268;DHT22;6196;48.398;11.736;2022-08-25T16:21:31;28.10;99.90
12268;DHT22;6196;48.398;11.736;2022-08-25T16:24:03;28.10;99.90
12268;DHT22;6196;48.398;11.736;2022-08-25T16:26:35;27.90;99.90
12268;DHT22;6196;48.398;11.736;2022-08-25T16:29:05;27.70;99.90
12268;DHT22;6196;48.398;11.736;2022-08-25T16:31:32;27.50;99.90
12268;DHT22;6196;48.398;11.736;2022-08-25T16:33:59;27.30;99.90
12268;DHT22;6196;48.398;11.736;2022-08-25T16:36:27;27.20;99.90
12268;DHT22;6196;48.398;11.736;2022-08-25T16:38:55;27.10;99.90
12268;DHT22;6196;48.398;11.736;2022-08-25T16:41:25;27.00;99.90
12268;DHT22;6196;48.398;11.736;2022-08-25T16:44:03;26.90;99.90
12268;DHT22;6196;48.398;11.736;2022-08-25T16:46:37;26.90;99.90
12268;DHT22;6196;48.398;11.736;2022-08-25T16:49:07;26.80;99.90
12268;DHT22;6196;48.398;11.736;2022-08-25T16:51:36;26.80;99.90
12268;DHT22;6196;48.398;11.736;2022-08-25T16:54:05;26.60;99.90
12268;DHT22;6196;48.398;11.736;2022-08-25T16:56:52;26.50;99.90
12268;DHT22;6196;48.398;11.736;2022-08-25T16:59:21;26.40;99.90
12268;DHT22;6196;48.398;11.736;2022-08-25T17:01:50;26.20;99.90
12268;DHT22;6196;48.398;11.736;2022-08-25T17:04:18;26.00;99.90
12268;DHT22;6196;48.398;11.736;2022-08-25T17:06:46;25.80;99.90
12268;DHT22;6196;48.398;11.736;2022-08-25T17:09:17;25.70;99.90
12268;DHT22;6196;48.398;11.736;2022-08-25T17:11:49;25.70;99.90
12268;DHT22;6196;48.398;11.736;2022-08-25T17:14:19;25.60;99.90
12268;DHT22;6196;48.398;11.736;2022-08-25T17:16:46;25.50;99.90
12268;DHT22;6196;48.398;11.736;2022-08-25T17:19:16;25.40;99.90
12268;DHT22;6196;48.398;11.736;2022-08-25T17:21:44;25.30;99.90
12268;DHT22;6196;48.398;11.736;2022-08-25T17:24:15;25.10;99.90
12268;DHT22;6196;48.398;11.736;2022-08-25T17:26:44;25.00;99.90
12268;DHT22;6196;48.398;11.736;2022-08-25T17:29:16;24.90;99.90
12268;DHT22;6196;48.398;11.736;2022-08-25T17:31:43;24.80;99.90
12268;DHT22;6196;48.398;11.736;2022-08-25T17:34:14;24.70;99.90
12268;DHT22;6196;48.398;11.736;2022-08-25T17:36:45;24.60;99.90
12268;DHT22;6196;48.398;11.736;2022-08-25T17:39:13;24.50;99.90
12268;DHT22;6196;48.398;11.736;2022-08-25T17:41:40;24.50;99.90
12268;DHT22;6196;48.398;11.736;2022-08-25T17:44:10;24.40;99.90
12268;DHT22;6196;48.398;11.736;2022-08-25T17:46:37;24.40;99.90
12268;DHT22;6196;48.398;11.736;2022-08-25T17:49:13;24.30;99.90
12268;DHT22;6196;48.398;11.736;2022-08-25T17:51:41;24.10;99.90
12268;DHT22;6196;48.398;11.736;2022-08-25T17:54:08;24.10;99.90
12268;DHT22;6196;48.398;11.736;2022-08-25T17:56:36;24.00;99.90
12268;DHT22;6196;48.398;11.736;2022-08-25T17:59:03;24.00;99.90
12268;DHT22;6196;48.398;11.736;2022-08-25T18:01:32;23.90;99.90
12268;DHT22;6196;48.398;11.736;2022-08-25T18:04:05;23.80;99.90
12268;DHT22;6196;48.398;11.736;2022-08-25T18:06:43;23.60;99.90